sensor_id;sensor_type;location;lat;lon;timestamp;pressure;altitude;pressure_sealevel;temperature;humidity
74334;BME280;62753;40.394;-80.022;2023-04-15T00:00:23;96622.38;;;32.10;12.92
74334;BME280;62753;40.394;-80.022;2023-04-15T00:02:48;96624.24;;;32.05;13.02
74334;BME280;62753;40.394;-80.022;2023-04-15T00:05:14;96624.98;;;31.77;13.01
74334;BME280;62753;40.394;-80.022;2023-04-15T00:07:39;96626.19;;;31.37;13.18
74334;BME280;62753;40.394;-80.022;2023-04-15T00:10:05;96627.63;;;31.85;13.15
74334;BME280;62753;40.394;-80.022;2023-04-15T00:12:30;96631.32;;;31.08;13.14
74334;BME280;62753;40.394;-80.022;2023-04-15T00:14:55;96630.85;;;31.36;13.21
74334;BME280;62753;40.394;-80.022;2023-04-15T00:17:21;96631.65;;;31.31;13.54
74334;BME280;62753;40.394;-80.022;2023-04-15T00:19:46;96635.01;;;30.82;13.73
74334;BME280;62753;40.394;-80.022;2023-04-15T00:22:12;96638.69;;;30.90;14.09
74334;BME280;62753;40.394;-80.022;2023-04-15T00:24:37;96640.64;;;31.03;13.62
74334;BME280;62753;40.394;-80.022;2023-04-15T00:27:02;96643.44;;;30.76;13.77
74334;BME280;62753;40.394;-80.022;2023-04-15T00:29:27;96644.86;;;30.76;14.09
74334;BME280;62753;40.394;-80.022;2023-04-15T00:31:53;96643.68;;;30.71;13.83
74334;BME280;62753;40.394;-80.022;2023-04-15T00:34:19;96645.10;;;30.76;13.64
74334;BME280;62753;40.394;-80.022;2023-04-15T00:36:44;96643.58;;;30.78;14.11
74334;BME280;62753;40.394;-80.022;2023-04-15T00:39:09;96646.68;;;30.59;14.24
74334;BME280;62753;40.394;-80.022;2023-04-15T00:41:36;96644.97;;;30.87;14.29
74334;BME280;62753;40.394;-80.022;2023-04-15T00:44:01;96647.64;;;30.92;14.20
74334;BME280;62753;40.394;-80.022;2023-04-15T00:46:27;96647.96;;;30.67;14.27
74334;BME280;62753;40.394;-80.022;2023-04-15T00:48:51;96649.99;;;30.30;14.44
74334;BME280;62753;40.394;-80.022;2023-04-15T00:51:16;96650.44;;;30.08;14.93
74334;BME280;62753;40.394;-80.022;2023-04-15T00:53:43;96651.95;;;30.14;14.72
74334;BME280;62753;40.394;-80.022;2023-04-15T00:56:09;96650.85;;;30.42;14.66
74334;BME280;62753;40.394;-80.022;2023-04-15T00:58:33;96652.24;;;29.85;14.64
74334;BME280;62753;40.394;-80.022;2023-04-15T01:00:59;96653.72;;;30.12;14.63
74334;BME280;62753;40.394;-80.022;2023-04-15T01:03:25;96652.94;;;29.77;14.83
74334;BME280;62753;40.394;-80.022;2023-04-15T01:05:51;96656.68;;;29.90;14.78
74334;BME280;62753;40.394;-80.022;2023-04-15T01:08:16;96658.12;;;29.99;14.68
74334;BME280;62753;40.394;-80.022;2023-04-15T01:10:41;96664.96;;;29.70;15.17
74334;BME280;62753;40.394;-80.022;2023-04-15T01:13:07;96661.66;;;29.11;15.26
74334;BME280;62753;40.394;-80.022;2023-04-15T01:15:33;96664.00;;;29.61;15.46
74334;BME280;62753;40.394;-80.022;2023-04-15T01:17:58;96665.17;;;29.46;14.97
74334;BME280;62753;40.394;-80.022;2023-04-15T01:20:23;96662.81;;;29.89;14.63
74334;BME280;62753;40.394;-80.022;2023-04-15T01:22:49;96666.04;;;29.84;15.02
74334;BME280;62753;40.394;-80.022;2023-04-15T01:25:17;96669.67;;;29.77;14.88
74334;BME280;62753;40.394;-80.022;2023-04-15T01:27:40;96676.17;;;29.89;15.63
74334;BME280;62753;40.394;-80.022;2023-04-15T01:30:06;96679.90;;;29.76;15.01
74334;BME280;62753;40.394;-80.022;2023-04-15T01:32:29;96682.33;;;29.14;15.34
74334;BME280;62753;40.394;-80.022;2023-04-15T01:34:55;96684.03;;;29.38;14.98
74334;BME280;62753;40.394;-80.022;2023-04-15T01:37:21;96683.92;;;29.79;14.72
74334;BME280;62753;40.394;-80.022;2023-04-15T01:39:46;96686.11;;;29.72;14.48
74334;BME280;62753;40.394;-80.022;2023-04-15T01:42:11;96678.37;;;30.07;14.54
74334;BME280;62753;40.394;-80.022;2023-04-15T01:44:37;96684.16;;;29.86;14.48
74334;BME280;62753;40.394;-80.022;2023-04-15T01:47:02;96683.73;;;30.08;14.78
74334;BME280;62753;40.394;-80.022;2023-04-15T01:49:28;96677.19;;;29.98;14.38
74334;BME280;62753;40.394;-80.022;2023-04-15T01:51:53;96679.06;;;29.94;14.41
74334;BME280;62753;40.394;-80.022;2023-04-15T01:54:19;96678.73;;;30.04;14.46
74334;BME280;62753;40.394;-80.022;2023-04-15T01:56:45;96679.79;;;30.16;14.37
74334;BME280;62753;40.394;-80.022;2023-04-15T01:59:10;96677.66;;;29.78;14.50
74334;BME280;62753;40.394;-80.022;2023-04-15T02:01:35;96677.24;;;30.13;14.51
74334;BME280;62753;40.394;-80.022;2023-04-15T02:04:01;96679.43;;;30.20;14.53
74334;BME280;62753;40.394;-80.022;2023-04-15T02:06:26;96679.56;;;30.28;14.41
74334;BME280;62753;40.394;-80.022;2023-04-15T02:08:51;96679.87;;;30.20;14.42
74334;BME280;62753;40.394;-80.022;2023-04-15T02:11:17;96680.39;;;30.28;14.45
74334;BME280;62753;40.394;-80.022;2023-04-15T02:13:42;96678.90;;;30.42;14.48
74334;BME280;62753;40.394;-80.022;2023-04-15T02:16:15;96678.38;;;30.18;14.48
74334;BME280;62753;40.394;-80.022;2023-04-15T02:18:33;96677.55;;;30.30;14.38
74334;BME280;62753;40.394;-80.022;2023-04-15T02:20:58;96678.25;;;30.72;14.22
74334;BME280;62753;40.394;-80.022;2023-04-15T02:23:23;96680.01;;;30.13;14.49
74334;BME280;62753;40.394;-80.022;2023-04-15T02:25:49;96684.86;;;30.59;14.30
74334;BME280;62753;40.394;-80.022;2023-04-15T02:28:14;96687.66;;;29.97;14.53
74334;BME280;62753;40.394;-80.022;2023-04-15T02:30:39;96685.84;;;30.16;14.25
74334;BME280;62753;40.394;-80.022;2023-04-15T02:33:05;96683.72;;;30.67;14.31
74334;BME280;62753;40.394;-80.022;2023-04-15T02:35:31;96682.63;;;30.20;14.42
74334;BME280;62753;40.394;-80.022;2023-04-15T02:37:56;96682.50;;;30.79;14.25
74334;BME280;62753;40.394;-80.022;2023-04-15T02:40:22;96685.23;;;30.58;14.69
74334;BME280;62753;40.394;-80.022;2023-04-15T02:42:47;96681.64;;;30.28;14.96
74334;BME280;62753;40.394;-80.022;2023-04-15T02:45:13;96678.70;;;30.50;14.86
74334;BME280;62753;40.394;-80.022;2023-04-15T02:47:38;96677.69;;;29.71;15.12
74334;BME280;62753;40.394;-80.022;2023-04-15T02:50:04;96677.57;;;30.14;14.85
74334;BME280;62753;40.394;-80.022;2023-04-15T02:52:28;96684.54;;;29.56;15.32
74334;BME280;62753;40.394;-80.022;2023-04-15T02:54:54;96685.40;;;29.78;15.62
74334;BME280;62753;40.394;-80.022;2023-04-15T02:57:19;96685.63;;;30.06;15.80
74334;BME280;62753;40.394;-80.022;2023-04-15T02:59:45;96685.42;;;29.97;15.39
74334;BME280;62753;40.394;-80.022;2023-04-15T03:02:11;96684.08;;;29.65;15.63
74334;BME280;62753;40.394;-80.022;2023-04-15T03:04:37;96685.75;;;29.51;15.64
74334;BME280;62753;40.394;-80.022;2023-04-15T03:07:02;96686.14;;;29.42;15.59
74334;BME280;62753;40.394;-80.022;2023-04-15T03:09:28;96686.19;;;29.35;15.81
74334;BME280;62753;40.394;-80.022;2023-04-15T03:11:53;96685.53;;;28.94;15.96
74334;BME280;62753;40.394;-80.022;2023-04-15T03:14:19;96685.96;;;29.06;15.74
74334;BME280;62753;40.394;-80.022;2023-04-15T03:16:44;96684.62;;;29.08;15.73
74334;BME280;62753;40.394;-80.022;2023-04-15T03:19:09;96688.88;;;29.59;15.62
74334;BME280;62753;40.394;-80.022;2023-04-15T03:21:35;96699.59;;;29.19;16.02
74334;BME280;62753;40.394;-80.022;2023-04-15T03:24:00;96707.64;;;29.25;16.19
74334;BME280;62753;40.394;-80.022;2023-04-15T03:26:27;96707.14;;;28.34;17.48
74334;BME280;62753;40.394;-80.022;2023-04-15T03:28:51;96706.74;;;27.99;19.11
74334;BME280;62753;40.394;-80.022;2023-04-15T03:31:16;96709.54;;;28.01;19.51
74334;BME280;62753;40.394;-80.022;2023-04-15T03:33:41;96706.82;;;27.76;20.45
74334;BME280;62753;40.394;-80.022;2023-04-15T03:36:07;96709.05;;;27.19;21.06
74334;BME280;62753;40.394;-80.022;2023-04-15T03:38:32;96706.75;;;27.50;21.53
74334;BME280;62753;40.394;-80.022;2023-04-15T03:40:58;96702.32;;;27.06;22.01
74334;BME280;62753;40.394;-80.022;2023-04-15T03:43:23;96698.86;;;26.92;22.74
74334;BME280;62753;40.394;-80.022;2023-04-15T03:45:49;96695.71;;;27.12;22.44
74334;BME280;62753;40.394;-80.022;2023-04-15T03:48:14;96693.32;;;27.03;23.05
74334;BME280;62753;40.394;-80.022;2023-04-15T03:50:39;96694.95;;;27.28;23.38
74334;BME280;62753;40.394;-80.022;2023-04-15T03:53:04;96692.70;;;27.14;23.28
74334;BME280;62753;40.394;-80.022;2023-04-15T03:55:30;96687.03;;;27.37;23.26
74334;BME280;62753;40.394;-80.022;2023-04-15T03:57:55;96684.54;;;27.47;22.39
74334;BME280;62753;40.394;-80.022;2023-04-15T04:00:20;96683.53;;;27.64;22.91
74334;BME280;62753;40.394;-80.022;2023-04-15T04:02:46;96681.14;;;27.68;22.79
74334;BME280;62753;40.394;-80.022;2023-04-15T04:05:11;96679.60;;;27.43;23.85
74334;BME280;62753;40.394;-80.022;2023-04-15T04:07:36;96682.75;;;27.38;23.59
74334;BME280;62753;40.394;-80.022;2023-04-15T04:10:02;96683.48;;;26.62;24.22
74334;BME280;62753;40.394;-80.022;2023-04-15T04:12:26;96685.85;;;27.10;24.49
74334;BME280;62753;40.394;-80.022;2023-04-15T04:14:52;96683.84;;;26.64;25.30
74334;BME280;62753;40.394;-80.022;2023-04-15T04:17:17;96683.47;;;27.03;25.09
74334;BME280;62753;40.394;-80.022;2023-04-15T04:19:42;96683.22;;;27.24;24.45
74334;BME280;62753;40.394;-80.022;2023-04-15T04:22:07;96684.85;;;27.16;24.74
74334;BME280;62753;40.394;-80.022;2023-04-15T04:24:33;96679.66;;;26.90;25.23
74334;BME280;62753;40.394;-80.022;2023-04-15T04:26:58;96676.85;;;27.38;25.17
74334;BME280;62753;40.394;-80.022;2023-04-15T04:29:23;96679.94;;;26.56;25.79
74334;BME280;62753;40.394;-80.022;2023-04-15T04:31:48;96678.79;;;26.73;25.55
74334;BME280;62753;40.394;-80.022;2023-04-15T04:34:14;96679.82;;;26.82;25.53
74334;BME280;62753;40.394;-80.022;2023-04-15T04:36:39;96683.20;;;26.89;25.83
74334;BME280;62753;40.394;-80.022;2023-04-15T04:39:04;96681.88;;;26.68;26.07
74334;BME280;62753;40.394;-80.022;2023-04-15T04:41:29;96684.72;;;26.59;25.57
74334;BME280;62753;40.394;-80.022;2023-04-15T04:43:55;96686.23;;;27.01;25.49
74334;BME280;62753;40.394;-80.022;2023-04-15T04:46:20;96683.92;;;27.36;24.85
74334;BME280;62753;40.394;-80.022;2023-04-15T04:48:45;96689.74;;;27.53;25.11
74334;BME280;62753;40.394;-80.022;2023-04-15T04:51:11;96701.58;;;27.79;24.98
74334;BME280;62753;40.394;-80.022;2023-04-15T04:53:36;96708.87;;;27.52;25.51
74334;BME280;62753;40.394;-80.022;2023-04-15T04:56:00;96708.66;;;27.18;25.46
74334;BME280;62753;40.394;-80.022;2023-04-15T04:58:26;96721.11;;;27.04;26.01
74334;BME280;62753;40.394;-80.022;2023-04-15T05:00:51;96728.03;;;26.88;25.93
74334;BME280;62753;40.394;-80.022;2023-04-15T05:03:16;96729.48;;;26.83;26.38
74334;BME280;62753;40.394;-80.022;2023-04-15T05:05:42;96732.89;;;26.11;27.19
74334;BME280;62753;40.394;-80.022;2023-04-15T05:08:07;96736.79;;;26.25;27.29
74334;BME280;62753;40.394;-80.022;2023-04-15T05:10:32;96739.68;;;26.31;26.83
74334;BME280;62753;40.394;-80.022;2023-04-15T05:12:57;96745.97;;;26.75;26.70
74334;BME280;62753;40.394;-80.022;2023-04-15T05:15:22;96750.41;;;26.65;27.17
74334;BME280;62753;40.394;-80.022;2023-04-15T05:17:48;96758.47;;;24.54;30.33
74334;BME280;62753;40.394;-80.022;2023-04-15T05:20:13;96759.89;;;24.14;31.60
74334;BME280;62753;40.394;-80.022;2023-04-15T05:22:38;96757.82;;;25.19;30.71
74334;BME280;62753;40.394;-80.022;2023-04-15T05:25:04;96758.65;;;25.02;31.27
74334;BME280;62753;40.394;-80.022;2023-04-15T05:27:29;96766.34;;;25.46;30.09
74334;BME280;62753;40.394;-80.022;2023-04-15T05:29:54;96764.92;;;25.40;30.01
74334;BME280;62753;40.394;-80.022;2023-04-15T05:32:19;96763.26;;;25.07;31.29
74334;BME280;62753;40.394;-80.022;2023-04-15T05:34:44;96758.54;;;24.82;31.61
74334;BME280;62753;40.394;-80.022;2023-04-15T05:37:10;96765.82;;;24.79;32.54
74334;BME280;62753;40.394;-80.022;2023-04-15T05:39:35;96766.93;;;24.09;33.70
74334;BME280;62753;40.394;-80.022;2023-04-15T05:42:00;96761.83;;;24.74;32.73
74334;BME280;62753;40.394;-80.022;2023-04-15T05:44:25;96764.84;;;24.27;33.26
74334;BME280;62753;40.394;-80.022;2023-04-15T05:46:50;96766.07;;;24.51;33.29
74334;BME280;62753;40.394;-80.022;2023-04-15T05:49:16;96766.70;;;24.64;33.29
74334;BME280;62753;40.394;-80.022;2023-04-15T05:51:41;96769.85;;;23.93;33.98
74334;BME280;62753;40.394;-80.022;2023-04-15T05:54:06;96770.72;;;24.58;33.50
74334;BME280;62753;40.394;-80.022;2023-04-15T05:56:32;96772.97;;;24.42;33.77
74334;BME280;62753;40.394;-80.022;2023-04-15T05:58:57;96782.86;;;24.47;33.20
74334;BME280;62753;40.394;-80.022;2023-04-15T06:01:22;96795.01;;;24.76;33.05
74334;BME280;62753;40.394;-80.022;2023-04-15T06:03:47;96806.21;;;24.94;32.65
74334;BME280;62753;40.394;-80.022;2023-04-15T06:06:13;96798.90;;;24.25;33.18
74334;BME280;62753;40.394;-80.022;2023-04-15T06:08:38;96793.36;;;24.54;33.08
74334;BME280;62753;40.394;-80.022;2023-04-15T06:11:04;96795.18;;;24.38;33.66
74334;BME280;62753;40.394;-80.022;2023-04-15T06:13:28;96786.80;;;23.92;34.88
74334;BME280;62753;40.394;-80.022;2023-04-15T06:15:54;96779.27;;;23.93;34.51
74334;BME280;62753;40.394;-80.022;2023-04-15T06:18:19;96775.29;;;23.61;35.76
74334;BME280;62753;40.394;-80.022;2023-04-15T06:20:44;96772.24;;;24.11;34.98
74334;BME280;62753;40.394;-80.022;2023-04-15T06:23:09;96770.53;;;23.87;34.69
74334;BME280;62753;40.394;-80.022;2023-04-15T06:25:35;96769.83;;;23.56;35.82
74334;BME280;62753;40.394;-80.022;2023-04-15T06:28:00;96767.53;;;23.40;36.05
74334;BME280;62753;40.394;-80.022;2023-04-15T06:30:25;96767.37;;;22.48;37.11
74334;BME280;62753;40.394;-80.022;2023-04-15T06:32:50;96771.06;;;23.11;36.62
74334;BME280;62753;40.394;-80.022;2023-04-15T06:35:15;96766.08;;;23.41;36.40
74334;BME280;62753;40.394;-80.022;2023-04-15T06:37:41;96754.67;;;22.91;37.35
74334;BME280;62753;40.394;-80.022;2023-04-15T06:40:08;96751.97;;;23.26;37.06
74334;BME280;62753;40.394;-80.022;2023-04-15T06:42:31;96745.20;;;23.09;37.19
74334;BME280;62753;40.394;-80.022;2023-04-15T06:44:57;96734.43;;;22.75;38.21
74334;BME280;62753;40.394;-80.022;2023-04-15T06:47:22;96735.13;;;23.03;37.61
74334;BME280;62753;40.394;-80.022;2023-04-15T06:49:47;96738.19;;;23.21;36.71
74334;BME280;62753;40.394;-80.022;2023-04-15T06:52:13;96747.40;;;22.32;38.50
74334;BME280;62753;40.394;-80.022;2023-04-15T06:54:38;96745.55;;;22.61;38.48
74334;BME280;62753;40.394;-80.022;2023-04-15T06:57:03;96746.07;;;23.41;36.64
74334;BME280;62753;40.394;-80.022;2023-04-15T06:59:28;96748.05;;;23.50;36.25
74334;BME280;62753;40.394;-80.022;2023-04-15T07:01:53;96742.34;;;23.83;35.85
74334;BME280;62753;40.394;-80.022;2023-04-15T07:04:19;96733.12;;;23.52;36.39
74334;BME280;62753;40.394;-80.022;2023-04-15T07:06:44;96727.58;;;23.82;35.91
74334;BME280;62753;40.394;-80.022;2023-04-15T07:09:09;96726.43;;;24.13;35.72
74334;BME280;62753;40.394;-80.022;2023-04-15T07:11:34;96728.52;;;24.20;35.76
74334;BME280;62753;40.394;-80.022;2023-04-15T07:14:00;96720.97;;;23.85;35.52
74334;BME280;62753;40.394;-80.022;2023-04-15T07:16:25;96718.99;;;24.36;35.09
74334;BME280;62753;40.394;-80.022;2023-04-15T07:18:50;96716.24;;;24.36;35.03
74334;BME280;62753;40.394;-80.022;2023-04-15T07:21:15;96713.56;;;24.43;35.54
74334;BME280;62753;40.394;-80.022;2023-04-15T07:23:41;96709.66;;;24.28;35.20
74334;BME280;62753;40.394;-80.022;2023-04-15T07:26:07;96711.87;;;24.36;35.18
74334;BME280;62753;40.394;-80.022;2023-04-15T07:28:32;96712.98;;;24.42;35.24
74334;BME280;62753;40.394;-80.022;2023-04-15T07:30:57;96716.01;;;24.47;34.92
74334;BME280;62753;40.394;-80.022;2023-04-15T07:33:22;96716.61;;;24.42;34.94
74334;BME280;62753;40.394;-80.022;2023-04-15T07:35:48;96717.72;;;24.31;36.03
74334;BME280;62753;40.394;-80.022;2023-04-15T07:38:13;96717.01;;;23.76;36.12
74334;BME280;62753;40.394;-80.022;2023-04-15T07:40:39;96711.81;;;24.28;35.84
74334;BME280;62753;40.394;-80.022;2023-04-15T07:43:04;96705.19;;;23.91;36.38
74334;BME280;62753;40.394;-80.022;2023-04-15T07:45:29;96698.38;;;24.01;36.58
74334;BME280;62753;40.394;-80.022;2023-04-15T07:47:54;96719.24;;;23.57;37.48
74334;BME280;62753;40.394;-80.022;2023-04-15T07:50:20;96713.49;;;23.80;36.85
74334;BME280;62753;40.394;-80.022;2023-04-15T07:52:45;96702.65;;;24.09;36.36
74334;BME280;62753;40.394;-80.022;2023-04-15T07:55:10;96714.63;;;24.12;36.72
74334;BME280;62753;40.394;-80.022;2023-04-15T07:57:36;96724.64;;;23.55;37.33
74334;BME280;62753;40.394;-80.022;2023-04-15T08:00:01;96729.46;;;23.87;37.52
74334;BME280;62753;40.394;-80.022;2023-04-15T08:02:26;96724.17;;;23.87;36.57
74334;BME280;62753;40.394;-80.022;2023-04-15T08:04:51;96726.12;;;25.07;35.06
74334;BME280;62753;40.394;-80.022;2023-04-15T08:07:17;96727.24;;;25.58;34.28
74334;BME280;62753;40.394;-80.022;2023-04-15T08:09:42;96719.78;;;24.66;34.51
74334;BME280;62753;40.394;-80.022;2023-04-15T08:12:07;96717.75;;;25.09;34.58
74334;BME280;62753;40.394;-80.022;2023-04-15T08:14:32;96719.95;;;25.10;34.54
74334;BME280;62753;40.394;-80.022;2023-04-15T08:16:58;96713.20;;;25.25;34.01
74334;BME280;62753;40.394;-80.022;2023-04-15T08:19:23;96710.16;;;25.15;33.56
74334;BME280;62753;40.394;-80.022;2023-04-15T08:21:48;96713.45;;;25.61;33.13
74334;BME280;62753;40.394;-80.022;2023-04-15T08:24:13;96714.90;;;25.79;33.18
74334;BME280;62753;40.394;-80.022;2023-04-15T08:26:39;96714.82;;;25.77;33.08
74334;BME280;62753;40.394;-80.022;2023-04-15T08:29:04;96716.71;;;24.59;34.60
74334;BME280;62753;40.394;-80.022;2023-04-15T08:31:29;96713.67;;;25.10;34.37
74334;BME280;62753;40.394;-80.022;2023-04-15T08:33:56;96717.17;;;25.11;34.40
74334;BME280;62753;40.394;-80.022;2023-04-15T08:36:20;96713.82;;;24.81;34.66
74334;BME280;62753;40.394;-80.022;2023-04-15T08:38:45;96717.66;;;25.06;34.72
74334;BME280;62753;40.394;-80.022;2023-04-15T08:41:20;96719.35;;;24.72;34.82
74334;BME280;62753;40.394;-80.022;2023-04-15T08:43:40;96720.10;;;25.03;34.68
74334;BME280;62753;40.394;-80.022;2023-04-15T08:46:01;96725.22;;;25.18;34.36
74334;BME280;62753;40.394;-80.022;2023-04-15T08:48:28;96724.38;;;25.40;34.22
74334;BME280;62753;40.394;-80.022;2023-04-15T08:50:51;96723.34;;;25.14;34.70
74334;BME280;62753;40.394;-80.022;2023-04-15T08:53:17;96718.69;;;24.22;35.94
74334;BME280;62753;40.394;-80.022;2023-04-15T08:55:43;96717.71;;;24.55;36.44
74334;BME280;62753;40.394;-80.022;2023-04-15T08:58:07;96712.50;;;23.84;37.35
74334;BME280;62753;40.394;-80.022;2023-04-15T09:00:32;96706.02;;;23.80;37.49
74334;BME280;62753;40.394;-80.022;2023-04-15T09:02:58;96704.40;;;23.79;37.66
74334;BME280;62753;40.394;-80.022;2023-04-15T09:05:23;96704.57;;;24.14;37.71
74334;BME280;62753;40.394;-80.022;2023-04-15T09:07:49;96704.19;;;23.82;38.24
74334;BME280;62753;40.394;-80.022;2023-04-15T09:10:13;96707.95;;;23.42;38.74
74334;BME280;62753;40.394;-80.022;2023-04-15T09:12:39;96708.61;;;23.60;38.78
74334;BME280;62753;40.394;-80.022;2023-04-15T09:15:05;96708.59;;;23.83;37.96
74334;BME280;62753;40.394;-80.022;2023-04-15T09:17:32;96711.57;;;23.28;39.03
74334;BME280;62753;40.394;-80.022;2023-04-15T09:20:08;96713.37;;;23.24;39.54
74334;BME280;62753;40.394;-80.022;2023-04-15T09:22:20;96716.13;;;23.50;39.39
74334;BME280;62753;40.394;-80.022;2023-04-15T09:24:45;96718.96;;;23.27;39.29
74334;BME280;62753;40.394;-80.022;2023-04-15T09:27:10;96716.80;;;23.77;39.01
74334;BME280;62753;40.394;-80.022;2023-04-15T09:29:36;96716.35;;;23.30;39.94
74334;BME280;62753;40.394;-80.022;2023-04-15T09:32:11;96709.67;;;23.72;39.56
74334;BME280;62753;40.394;-80.022;2023-04-15T09:34:34;96709.92;;;23.21;39.87
74334;BME280;62753;40.394;-80.022;2023-04-15T09:36:53;96713.79;;;22.86;40.29
74334;BME280;62753;40.394;-80.022;2023-04-15T09:39:17;96715.19;;;23.63;39.57
74334;BME280;62753;40.394;-80.022;2023-04-15T09:41:42;96716.51;;;23.40;39.11
74334;BME280;62753;40.394;-80.022;2023-04-15T09:46:41;96722.55;;;23.79;39.02
74334;BME280;62753;40.394;-80.022;2023-04-15T09:49:06;96721.54;;;23.13;39.94
74334;BME280;62753;40.394;-80.022;2023-04-15T09:51:33;96721.06;;;23.50;39.30
74334;BME280;62753;40.394;-80.022;2023-04-15T09:53:54;96720.40;;;23.77;38.79
74334;BME280;62753;40.394;-80.022;2023-04-15T09:56:13;96721.08;;;23.48;39.25
74334;BME280;62753;40.394;-80.022;2023-04-15T09:58:39;96720.74;;;23.22;39.98
74334;BME280;62753;40.394;-80.022;2023-04-15T10:01:05;96722.02;;;23.14;39.73
74334;BME280;62753;40.394;-80.022;2023-04-15T10:03:31;96727.15;;;23.69;39.39
74334;BME280;62753;40.394;-80.022;2023-04-15T10:05:57;96728.14;;;23.12;39.35
74334;BME280;62753;40.394;-80.022;2023-04-15T10:08:21;96733.64;;;23.53;39.50
74334;BME280;62753;40.394;-80.022;2023-04-15T10:10:46;96736.77;;;23.26;39.36
74334;BME280;62753;40.394;-80.022;2023-04-15T10:13:11;96742.23;;;23.44;39.33
74334;BME280;62753;40.394;-80.022;2023-04-15T10:15:43;96746.68;;;23.17;40.05
74334;BME280;62753;40.394;-80.022;2023-04-15T10:18:03;96745.90;;;23.65;39.64
74334;BME280;62753;40.394;-80.022;2023-04-15T10:20:28;96746.87;;;23.53;39.22
74334;BME280;62753;40.394;-80.022;2023-04-15T10:22:52;96747.48;;;23.00;39.62
74334;BME280;62753;40.394;-80.022;2023-04-15T10:25:17;96751.16;;;23.03;41.20
74334;BME280;62753;40.394;-80.022;2023-04-15T10:27:42;96754.80;;;23.08;40.63
74334;BME280;62753;40.394;-80.022;2023-04-15T10:30:08;96754.30;;;23.10;40.22
74334;BME280;62753;40.394;-80.022;2023-04-15T10:32:33;96755.67;;;22.75;40.40
74334;BME280;62753;40.394;-80.022;2023-04-15T10:34:58;96757.97;;;23.24;40.19
74334;BME280;62753;40.394;-80.022;2023-04-15T10:37:33;96760.93;;;23.43;39.59
74334;BME280;62753;40.394;-80.022;2023-04-15T10:39:48;96765.72;;;23.43;40.04
74334;BME280;62753;40.394;-80.022;2023-04-15T10:42:15;96769.39;;;22.74;40.70
74334;BME280;62753;40.394;-80.022;2023-04-15T10:44:41;96778.21;;;22.83;41.16
74334;BME280;62753;40.394;-80.022;2023-04-15T10:47:09;96785.78;;;22.84;40.82
74334;BME280;62753;40.394;-80.022;2023-04-15T10:49:29;96792.15;;;23.05;40.46
74334;BME280;62753;40.394;-80.022;2023-04-15T10:51:58;96797.36;;;23.34;40.00
74334;BME280;62753;40.394;-80.022;2023-04-15T10:54:30;96804.67;;;23.09;40.89
74334;BME280;62753;40.394;-80.022;2023-04-15T10:56:50;96812.73;;;21.92;43.28
74334;BME280;62753;40.394;-80.022;2023-04-15T10:59:11;96814.61;;;22.46;42.18
74334;BME280;62753;40.394;-80.022;2023-04-15T11:01:51;96821.57;;;22.38;41.90
74334;BME280;62753;40.394;-80.022;2023-04-15T11:04:01;96829.93;;;21.73;43.68
74334;BME280;62753;40.394;-80.022;2023-04-15T11:08:56;96843.06;;;21.03;46.03
74334;BME280;62753;40.394;-80.022;2023-04-15T11:11:17;96855.10;;;21.11;45.66
74334;BME280;62753;40.394;-80.022;2023-04-15T11:13:48;96859.64;;;21.04;46.19
74334;BME280;62753;40.394;-80.022;2023-04-15T11:16:07;96864.42;;;20.50;47.23
74334;BME280;62753;40.394;-80.022;2023-04-15T11:18:34;96865.99;;;20.73;47.16
74334;BME280;62753;40.394;-80.022;2023-04-15T11:21:00;96876.76;;;20.07;49.34
74334;BME280;62753;40.394;-80.022;2023-04-15T11:23:30;96880.01;;;20.46;48.56
74334;BME280;62753;40.394;-80.022;2023-04-15T11:25:49;96884.25;;;19.78;48.92
74334;BME280;62753;40.394;-80.022;2023-04-15T11:28:14;96888.34;;;19.68;50.16
74334;BME280;62753;40.394;-80.022;2023-04-15T11:30:40;96888.88;;;20.64;48.02
74334;BME280;62753;40.394;-80.022;2023-04-15T11:33:06;96894.45;;;20.87;47.84
74334;BME280;62753;40.394;-80.022;2023-04-15T11:35:31;96899.25;;;20.19;48.54
74334;BME280;62753;40.394;-80.022;2023-04-15T11:37:55;96901.03;;;19.89;49.70
74334;BME280;62753;40.394;-80.022;2023-04-15T11:40:23;96904.32;;;20.09;49.08
74334;BME280;62753;40.394;-80.022;2023-04-15T11:42:46;96900.74;;;20.55;48.15
74334;BME280;62753;40.394;-80.022;2023-04-15T11:45:13;96899.39;;;19.38;49.92
74334;BME280;62753;40.394;-80.022;2023-04-15T11:47:36;96902.18;;;19.50;49.76
74334;BME280;62753;40.394;-80.022;2023-04-15T11:50:14;96899.79;;;19.95;49.71
74334;BME280;62753;40.394;-80.022;2023-04-15T11:52:27;96900.84;;;20.58;47.76
74334;BME280;62753;40.394;-80.022;2023-04-15T11:55:01;96905.23;;;20.13;49.09
74334;BME280;62753;40.394;-80.022;2023-04-15T11:57:18;96909.12;;;20.04;49.27
74334;BME280;62753;40.394;-80.022;2023-04-15T11:59:43;96913.44;;;19.44;51.02
74334;BME280;62753;40.394;-80.022;2023-04-15T12:02:11;96914.48;;;19.45;50.15
74334;BME280;62753;40.394;-80.022;2023-04-15T12:04:33;96917.84;;;20.95;47.46
74334;BME280;62753;40.394;-80.022;2023-04-15T12:07:04;96925.50;;;20.39;48.75
74334;BME280;62753;40.394;-80.022;2023-04-15T12:09:24;96933.01;;;20.33;48.46
74334;BME280;62753;40.394;-80.022;2023-04-15T12:11:50;96933.95;;;20.25;47.92
74334;BME280;62753;40.394;-80.022;2023-04-15T12:14:20;96932.87;;;20.97;46.64
74334;BME280;62753;40.394;-80.022;2023-04-15T12:16:41;96931.46;;;20.27;48.38
74334;BME280;62753;40.394;-80.022;2023-04-15T12:19:06;96933.65;;;20.08;49.26
74334;BME280;62753;40.394;-80.022;2023-04-15T12:21:34;96933.00;;;19.42;50.19
74334;BME280;62753;40.394;-80.022;2023-04-15T12:23:57;96939.52;;;18.98;52.43
74334;BME280;62753;40.394;-80.022;2023-04-15T12:26:26;96938.21;;;19.94;50.24
74334;BME280;62753;40.394;-80.022;2023-04-15T12:28:46;96941.54;;;19.97;48.67
74334;BME280;62753;40.394;-80.022;2023-04-15T12:31:12;96943.37;;;20.55;47.67
74334;BME280;62753;40.394;-80.022;2023-04-15T12:33:37;96947.70;;;20.08;48.20